^^
Saratoga-Weather Station Historical Data
Daily Summary for January 24, 2021 Units:  English    Metric   Both
Daily Weekly Monthly Yearly Custom
  High: Low: Average:
Temperature: 47.8 °F 44.1 °F 46.4 °F
Dew Point: 46.4 °F 41 °F 44.8 °F
Humidity: 97% 87% 94%
Wind Speed: 4mph 0mph 0.9mph
Wind Gust: 9mph - -
Wind- - West
Pressure: 29.8 in 29.6 in -
Precipitation: 0.23 in    
Historical Graphs
 
 
Tabular Data for January 24, 2021
Time Temperature Dew Point Pressure Wind Wind Speed Wind Gust Humidity Rainfall Rate (Hourly) solar
00:03 45.1 °F 41.5 °F 29.8 in Calm   2 mph 87% 0 in 0 W/m2
00:08 44.6 °F 41.2 °F 29.8 in Calm     88% 0 in 0 W/m2
00:13 44.2 °F 41.2 °F 29.8 in Calm   1 mph 89% 0 in 0 W/m2
00:18 44.1 °F 41 °F 29.8 in Calm     89% 0 in 0 W/m2
00:23 44.1 °F 41.4 °F 29.8 in Calm   3 mph 90% 0 in 0 W/m2
00:28 44.4 °F 41.9 °F 29.8 in Calm   1 mph 91% 0 in 0 W/m2
00:33 45.1 °F 42.6 °F 29.8 in NW 0.9 mph 2 mph 91% 0 in 0 W/m2
00:38 45.9 °F 43.2 °F 29.8 in NW 2 mph 6 mph 90% 0 in 0 W/m2
00:43 46.6 °F 43.5 °F 29.8 in NW 4 mph 4 mph 89% 0 in 0 W/m2
00:48 47.1 °F 43.7 °F 29.8 in Calm   6 mph 88% 0 in 0 W/m2
00:53 47.1 °F 43.5 °F 29.8 in NNW 2 mph 3 mph 87% 0 in 0 W/m2
00:58 47.3 °F 43.7 °F 29.8 in Calm   4 mph 87% 0 in 0 W/m2
01:03 47.3 °F 43.7 °F 29.8 in NW 0.9 mph 9 mph 87% 0 in 0 W/m2
01:08 47.3 °F 43.7 °F 29.8 in NNW 2.9 mph 4 mph 87% 0 in 0 W/m2
01:13 47.3 °F 43.7 °F 29.8 in NW 2 mph 9 mph 87% 0 in 0 W/m2
01:18 47.1 °F 43.5 °F 29.8 in Calm   3 mph 87% 0 in 0 W/m2
01:23 46.9 °F 43.5 °F 29.8 in NW 2 mph 5 mph 88% 0 in 0 W/m2
01:28 46.8 °F 43.3 °F 29.8 in WNW 2.9 mph 3 mph 88% 0 in 0 W/m2
01:33 46.6 °F 43.5 °F 29.8 in WSW 0.9 mph 5 mph 89% 0 in 0 W/m2
01:38 46.4 °F 43.7 °F 29.8 in NW 0.9 mph 4 mph 90% 0 in 0 W/m2
01:43 46.2 °F 43.5 °F 29.8 in Calm   2 mph 90% 0 in 0 W/m2
01:48 46 °F 43.5 °F 29.8 in Calm   4 mph 91% 0 in 0 W/m2
01:53 45.9 °F 43.3 °F 29.8 in Calm   3 mph 91% 0 in 0 W/m2
01:58 45.7 °F 43.5 °F 29.8 in WSW 2 mph 4 mph 92% 0 in 0 W/m2
02:03 45.7 °F 43.5 °F 29.8 in WNW 4 mph 6 mph 92% 0 in 0 W/m2
02:08 45.9 °F 43.7 °F 29.8 in NW 2 mph 3 mph 92% 0 in 0 W/m2
02:13 45.9 °F 43.7 °F 29.8 in WNW 2 mph 3 mph 92% 0 in 0 W/m2
02:18 45.9 °F 43.7 °F 29.8 in Calm   1 mph 92% 0 in 0 W/m2
02:23 45.9 °F 43.7 °F 29.8 in Calm   1 mph 92% 0 in 0 W/m2
02:28 45.9 °F 43.7 °F 29.8 in WSW 2 mph 3 mph 92% 0 in 0 W/m2
02:33 45.9 °F 43.7 °F 29.8 in Calm   3 mph 92% 0 in 0 W/m2
02:38 45.9 °F 43.7 °F 29.8 in WNW 0.9 mph 5 mph 92% 0 in 0 W/m2
02:43 45.9 °F 43.7 °F 29.8 in Calm   1 mph 92% 0 in 0 W/m2
02:48 45.7 °F 43.5 °F 29.8 in WNW 2.9 mph 4 mph 92% 0 in 0 W/m2
02:53 45.7 °F 43.5 °F 29.8 in Calm   1 mph 92% 0 in 0 W/m2
02:58 45.9 °F 43.7 °F 29.8 in Calm   2 mph 92% 0 in 0 W/m2
03:03 45.9 °F 43.7 °F 29.8 in Calm   4 mph 92% 0 in 0 W/m2
03:08 45.9 °F 43.7 °F 29.8 in NW 0.9 mph 3 mph 92% 0 in 0 W/m2
03:13 45.9 °F 43.7 °F 29.8 in Calm   4 mph 92% 0 in 0 W/m2
03:18 46 °F 43.9 °F 29.8 in WSW 2.9 mph 3 mph 92% 0 in 0 W/m2
03:23 46 °F 43.9 °F 29.8 in Calm   4 mph 92% 0 in 0 W/m2
03:28 46 °F 43.9 °F 29.8 in Calm     92% 0 in 0 W/m2
03:33 45.9 °F 43.7 °F 29.8 in WSW 2 mph 4 mph 92% 0 in 0 W/m2
03:38 45.9 °F 43.7 °F 29.8 in West 0.9 mph 2 mph 92% 0 in 0 W/m2
03:43 45.9 °F 43.7 °F 29.8 in Calm   1 mph 92% 0 in 0 W/m2
03:48 45.9 °F 43.7 °F 29.8 in Calm   1 mph 92% 0 in 0 W/m2
03:53 45.7 °F 43.7 °F 29.8 in Calm   2 mph 93% 0 in 0 W/m2
03:58 45.9 °F 43.9 °F 29.8 in Calm   2 mph 93% 0 in 0 W/m2
04:03 45.7 °F 43.7 °F 29.8 in SSE 4 mph 4 mph 93% 0 in 0 W/m2
04:08 45.9 °F 43.9 °F 29.8 in NW 2 mph 3 mph 93% 0 in 0 W/m2
04:13 45.7 °F 43.7 °F 29.8 in NNW 2.9 mph 3 mph 93% 0 in 0 W/m2
04:18 45.7 °F 43.7 °F 29.8 in Calm   2 mph 93% 0 in 0 W/m2
04:23 45.7 °F 43.7 °F 29.8 in Calm   3 mph 93% 0 in 0 W/m2
04:28 45.7 °F 43.7 °F 29.8 in NW 0.9 mph 2 mph 93% 0 in 0 W/m2
04:33 45.9 °F 43.9 °F 29.8 in Calm   4 mph 93% 0 in 0 W/m2
04:38 45.9 °F 43.9 °F 29.8 in Calm   4 mph 93% 0 in 0 W/m2
04:43 45.9 °F 43.7 °F 29.8 in Calm   1 mph 92% 0 in 0 W/m2
04:48 45.9 °F 43.7 °F 29.8 in Calm   3 mph 92% 0 in 0 W/m2
04:53 45.9 °F 43.7 °F 29.8 in North 2.9 mph 3 mph 92% 0 in 0 W/m2
04:58 45.9 °F 43.7 °F 29.8 in West 2 mph 2 mph 92% 0 in 0 W/m2
05:03 45.9 °F 43.7 °F 29.8 in North 2.9 mph 3 mph 92% 0 in 0 W/m2
05:08 45.9 °F 43.7 °F 29.8 in Calm     92% 0 in 0 W/m2
05:13 45.9 °F 43.7 °F 29.8 in SW 3 mph 3 mph 92% 0 in 0 W/m2
05:18 45.7 °F 43.5 °F 29.8 in WNW 0.9 mph 2 mph 92% 0 in 0 W/m2
05:23 45.7 °F 43.5 °F 29.8 in Calm   2 mph 92% 0 in 0 W/m2
05:28 45.7 °F 43.5 °F 29.8 in Calm   1 mph 92% 0 in 0 W/m2
05:33 45.5 °F 43.3 °F 29.8 in Calm     92% 0 in 0 W/m2
05:38 45.7 °F 43.7 °F 29.8 in WNW 0.9 mph 3 mph 93% 0 in 0 W/m2
05:43 45.9 °F 43.7 °F 29.8 in West 4 mph 4 mph 92% 0 in 0 W/m2
05:48 45.9 °F 43.7 °F 29.8 in West 4 mph 7 mph 92% 0 in 0 W/m2
05:53 46 °F 43.9 °F 29.8 in NNW 2 mph 3 mph 92% 0 in 0 W/m2
05:58 46 °F 43.9 °F 29.8 in SSE 0.9 mph 6 mph 92% 0 in 0 W/m2
06:03 46 °F 43.9 °F 29.8 in Calm   4 mph 92% 0 in 0 W/m2
06:08 46 °F 43.9 °F 29.8 in Calm   5 mph 92% 0 in 0 W/m2
06:13 46 °F 43.9 °F 29.8 in Calm   5 mph 92% 0 in 0 W/m2
06:18 46 °F 43.9 °F 29.8 in SW 2 mph 5 mph 92% 0 in 0 W/m2
06:23 46 °F 43.9 °F 29.8 in West 2.9 mph 4 mph 92% 0 in 0 W/m2
06:28 46.2 °F 44.1 °F 29.8 in NW 2 mph 3 mph 92% 0 in 0 W/m2
06:33 46.2 °F 44.1 °F 29.8 in NW 2.9 mph 4 mph 92% 0 in 0 W/m2
06:38 46.2 °F 44.1 °F 29.8 in NNW 0.9 mph 3 mph 92% 0 in 0 W/m2
06:43 46.2 °F 44.1 °F 29.8 in Calm   2 mph 92% 0 in 0 W/m2
06:48 46 °F 43.9 °F 29.8 in West 0.9 mph 3 mph 92% 0 in 0 W/m2
06:53 46 °F 43.9 °F 29.8 in NW 0.9 mph 3 mph 92% 0 in 0 W/m2
06:58 46 °F 43.9 °F 29.8 in SW 2 mph 2 mph 92% 0 in 0 W/m2
07:03 46 °F 43.9 °F 29.8 in WNW 0.9 mph 3 mph 92% 0 in 0 W/m2
07:09 46 °F 43.9 °F 29.8 in Calm   2 mph 92% 0 in 0 W/m2
07:14 46 °F 43.9 °F 29.8 in SSW 0.9 mph 4 mph 92% 0 in 0 W/m2
07:19 46 °F 44.1 °F 29.8 in Calm   1 mph 93% 0 in 0 W/m2
07:24 45.9 °F 43.9 °F 29.8 in NW 2 mph 3 mph 93% 0 in 0 W/m2
07:29 45.9 °F 43.9 °F 29.8 in Calm   4 mph 93% 0 in 0 W/m2
07:34 45.9 °F 43.9 °F 29.8 in NW 2 mph 2 mph 93% 0 in 0 W/m2
07:39 45.9 °F 43.9 °F 29.8 in Calm   4 mph 93% 0 in 0 W/m2
07:44 45.7 °F 43.7 °F 29.8 in North 0.9 mph 3 mph 93% 0 in 0 W/m2
07:49 45.7 °F 43.7 °F 29.8 in WNW 0.9 mph 2 mph 93% 0 in 0 W/m2
07:54 45.7 °F 43.7 °F 29.8 in Calm   3 mph 93% 0 in 0 W/m2
07:59 45.7 °F 43.7 °F 29.8 in Calm     93% 0 in 0 W/m2
08:04 45.7 °F 43.7 °F 29.8 in Calm     93% 0.01 in 0 W/m2
08:09 45.5 °F 43.5 °F 29.8 in Calm   2 mph 93% 0.01 in 0 W/m2
08:14 45.5 °F 43.5 °F 29.8 in Calm   1 mph 93% 0.01 in 0 W/m2
08:19 45.3 °F 43.7 °F 29.8 in Calm   2 mph 94% 0.01 in 0 W/m2
08:24 45.3 °F 43.7 °F 29.8 in Calm   1 mph 94% 0.01 in 0 W/m2
08:29 45.3 °F 43.7 °F 29.8 in Calm   1 mph 94% 0.01 in 0 W/m2
08:34 45.3 °F 43.7 °F 29.8 in NW 0.9 mph 2 mph 94% 0.01 in 0 W/m2
08:39 45.3 °F 43.7 °F 29.8 in NW 0.9 mph 5 mph 94% 0.01 in 0 W/m2
08:44 45.3 °F 43.7 °F 29.8 in NW 2 mph 3 mph 94% 0.01 in 0 W/m2
08:49 45.3 °F 43.7 °F 29.8 in NW 0.9 mph 4 mph 94% 0.01 in 0 W/m2
08:54 45.3 °F 43.7 °F 29.8 in Calm     94% 0.01 in 0 W/m2
08:59 45.3 °F 43.7 °F 29.8 in Calm     94% 0.01 in 0 W/m2
09:04 45.1 °F 43.5 °F 29.8 in Calm   2 mph 94% 0 in 0 W/m2
09:09 45.3 °F 43.7 °F 29.8 in Calm     94% 0 in 5 W/m2
09:14 45.3 °F 43.7 °F 29.8 in Calm     94% 0 in 5 W/m2
09:19 45.1 °F 43.5 °F 29.8 in Calm   2 mph 94% 0 in 5 W/m2
09:24 45.1 °F 43.5 °F 29.8 in Calm   1 mph 94% 0 in 5 W/m2
09:29 45.1 °F 43.9 °F 29.8 in ENE 0.9 mph 3 mph 95% 0 in 7 W/m2
09:34 45.1 °F 43.9 °F 29.8 in Calm   1 mph 95% 0 in 9 W/m2
09:39 45.1 °F 43.9 °F 29.8 in Calm   3 mph 95% 0 in 7 W/m2
09:44 45.1 °F 43.9 °F 29.8 in Calm     95% 0 in 7 W/m2
09:49 45.1 °F 43.9 °F 29.8 in North 0.9 mph 2 mph 95% 0 in 9 W/m2
09:54 45.1 °F 43.9 °F 29.8 in Calm   2 mph 95% 0 in 11 W/m2
09:59 45.3 °F 44.1 °F 29.8 in Calm   1 mph 95% 0 in 12 W/m2
10:04 45.3 °F 44.1 °F 29.8 in Calm     95% 0 in 12 W/m2
10:09 45.3 °F 44.1 °F 29.8 in Calm   4 mph 95% 0 in 12 W/m2
10:14 45.3 °F 44.1 °F 29.8 in Calm     95% 0 in 14 W/m2
10:19 45.3 °F 44.1 °F 29.8 in Calm   4 mph 95% 0 in 14 W/m2
10:24 45.5 °F 44.2 °F 29.8 in Calm   1 mph 95% 0 in 14 W/m2
10:29 45.5 °F 44.2 °F 29.8 in Calm   3 mph 95% 0 in 18 W/m2
10:34 45.5 °F 44.2 °F 29.8 in Calm   1 mph 95% 0 in 16 W/m2
10:39 45.7 °F 44.4 °F 29.8 in Calm   2 mph 95% 0 in 14 W/m2
10:44 45.7 °F 44.4 °F 29.8 in West 2.9 mph 6 mph 95% 0 in 25 W/m2
10:49 45.7 °F 44.6 °F 29.8 in WSW 0.9 mph 4 mph 96% 0 in 25 W/m2
10:54 45.9 °F 44.8 °F 29.8 in WNW 0.9 mph 2 mph 96% 0 in 28 W/m2
10:59 45.9 °F 44.8 °F 29.8 in NW 0.9 mph 5 mph 96% 0 in 33 W/m2
11:04 45.9 °F 44.8 °F 29.8 in NNW 2 mph 3 mph 96% 0 in 33 W/m2
11:09 46 °F 45 °F 29.8 in WNW 0.9 mph 5 mph 96% 0 in 21 W/m2
11:14 46 °F 45 °F 29.8 in WNW 2 mph 3 mph 96% 0 in 14 W/m2
11:19 46 °F 45 °F 29.8 in Calm   4 mph 96% 0 in 14 W/m2
11:24 46 °F 45 °F 29.7 in Calm     96% 0 in 12 W/m2
11:29 46 °F 45 °F 29.7 in Calm   2 mph 96% 0 in 19 W/m2
11:34 46.2 °F 45.1 °F 29.7 in WNW 2 mph 4 mph 96% 0 in 18 W/m2
11:39 46.2 °F 45.1 °F 29.7 in NW 2.9 mph 3 mph 96% 0 in 21 W/m2
11:44 46.2 °F 45.1 °F 29.7 in NW 0.9 mph 3 mph 96% 0.01 in 21 W/m2
11:49 46.4 °F 45 °F 29.7 in Calm   4 mph 95% 0.02 in 30 W/m2
11:54 46.4 °F 45 °F 29.7 in Calm   2 mph 95% 0.03 in 39 W/m2
11:59 46.4 °F 45 °F 29.7 in NW 0.9 mph 3 mph 95% 0.03 in 44 W/m2
12:04 46.6 °F 45.1 °F 29.7 in West 2 mph 5 mph 95% 0.04 in 65 W/m2
12:09 46.8 °F 45.7 °F 29.7 in NW 2 mph 4 mph 96% 0.05 in 111 W/m2
12:14 46.8 °F 45.7 °F 29.7 in NW 2 mph 5 mph 96% 0.05 in 144 W/m2
12:19 46.9 °F 45.5 °F 29.7 in WNW 2 mph 3 mph 95% 0.05 in 104 W/m2
12:24 47.1 °F 45.7 °F 29.7 in West 0.9 mph 3 mph 95% 0.05 in 90 W/m2
12:29 47.1 °F 45.7 °F 29.7 in ENE 2 mph 2 mph 95% 0.06 in 81 W/m2
12:34 47.3 °F 45.9 °F 29.7 in WSW 2 mph 3 mph 95% 0.06 in 70 W/m2
12:39 47.5 °F 46 °F 29.7 in SW 0.9 mph 4 mph 95% 0.06 in 84 W/m2
12:44 47.5 °F 46 °F 29.7 in Calm   7 mph 95% 0.05 in 47 W/m2
12:49 47.5 °F 46 °F 29.7 in NW 0.9 mph 3 mph 95% 0.04 in 26 W/m2
12:54 47.3 °F 45.9 °F 29.7 in West 0.9 mph 7 mph 95% 0.03 in 25 W/m2
12:59 47.3 °F 45.9 °F 29.7 in Calm   3 mph 95% 0.05 in 97 W/m2
13:04 47.5 °F 46 °F 29.7 in WSW 2 mph 4 mph 95% 0.05 in 125 W/m2
13:09 47.5 °F 46 °F 29.7 in NW 0.9 mph 2 mph 95% 0.04 in 72 W/m2
13:14 47.5 °F 46 °F 29.7 in WNW 2.9 mph 7 mph 95% 0.04 in 83 W/m2
13:19 47.5 °F 46 °F 29.7 in WNW 2.9 mph 3 mph 95% 0.05 in 79 W/m2
13:24 47.5 °F 46 °F 29.7 in WNW 2 mph 7 mph 95% 0.05 in 53 W/m2
13:29 47.5 °F 46 °F 29.7 in WNW 2 mph 5 mph 95% 0.04 in 60 W/m2
13:34 47.5 °F 46 °F 29.7 in SW 2 mph 3 mph 95% 0.04 in 70 W/m2
13:39 47.5 °F 46 °F 29.7 in WNW 2 mph 4 mph 95% 0.04 in 56 W/m2
13:44 47.7 °F 46.2 °F 29.7 in West 2 mph 6 mph 95% 0.05 in 79 W/m2
13:49 47.7 °F 46.2 °F 29.7 in WNW 0.9 mph 2 mph 95% 0.06 in 113 W/m2
13:54 47.7 °F 46.2 °F 29.7 in Calm   2 mph 95% 0.06 in 90 W/m2
14:00 47.7 °F 46.2 °F 29.7 in WSW 0.9 mph 2 mph 95% 0.04 in 60 W/m2
14:05 47.8 °F 46.4 °F 29.7 in WNW 2.9 mph 3 mph 95% 0.03 in 51 W/m2
14:10 47.8 °F 46.4 °F 29.7 in NW 2 mph 3 mph 95% 0.03 in 44 W/m2
14:15 47.8 °F 46.4 °F 29.7 in NW 0.9 mph 2 mph 95% 0.04 in 49 W/m2
14:20 47.8 °F 46.4 °F 29.7 in Calm   3 mph 95% 0.03 in 39 W/m2
14:25 47.8 °F 46.4 °F 29.7 in NNW 0.9 mph 2 mph 95% 0.03 in 37 W/m2
14:30 47.8 °F 46.4 °F 29.7 in SW 2 mph 3 mph 95% 0.03 in 42 W/m2
14:35 47.8 °F 46.4 °F 29.7 in WSW 2.9 mph 3 mph 95% 0.03 in 46 W/m2
14:40 47.8 °F 46.4 °F 29.7 in SE 0.9 mph 4 mph 95% 0.03 in 33 W/m2
14:45 47.8 °F 46.4 °F 29.7 in Calm   1 mph 95% 0.02 in 39 W/m2
14:50 47.8 °F 46.4 °F 29.7 in West 2.9 mph 7 mph 95% 0.02 in 44 W/m2
14:55 47.8 °F 46.4 °F 29.7 in NW 2 mph 2 mph 95% 0.01 in 30 W/m2
15:00 47.8 °F 46.4 °F 29.7 in West 2 mph 3 mph 95% 0.02 in 26 W/m2
15:05 47.8 °F 46.4 °F 29.7 in WNW 2 mph 2 mph 95% 0.02 in 19 W/m2
15:10 47.8 °F 46.4 °F 29.7 in Calm   2 mph 95% 0.02 in 25 W/m2
15:15 47.8 °F 46.4 °F 29.7 in Calm   1 mph 95% 0.01 in 21 W/m2
15:20 47.8 °F 46.4 °F 29.7 in Calm   1 mph 95% 0.01 in 25 W/m2
15:25 47.8 °F 46.4 °F 29.7 in NNW 2.9 mph 3 mph 95% 0.02 in 18 W/m2
15:30 47.8 °F 46.4 °F 29.7 in Calm     95% 0.02 in 14 W/m2
15:35 47.8 °F 46.4 °F 29.7 in Calm     95% 0.02 in 11 W/m2
15:40 47.8 °F 46.4 °F 29.7 in Calm   3 mph 95% 0.02 in 7 W/m2
15:45 47.8 °F 46.4 °F 29.7 in Calm   2 mph 95% 0.02 in 9 W/m2
15:50 47.8 °F 46.4 °F 29.7 in SW 0.9 mph 3 mph 95% 0.02 in 12 W/m2
15:55 47.8 °F 46.4 °F 29.7 in SW 0.9 mph 2 mph 95% 0.02 in 9 W/m2
16:00 47.8 °F 46.4 °F 29.7 in SW 2 mph 7 mph 95% 0.01 in 7 W/m2
16:05 47.8 °F 46.4 °F 29.7 in Calm   2 mph 95% 0.01 in 7 W/m2
16:10 47.8 °F 46.4 °F 29.7 in NW 2 mph 4 mph 95% 0.01 in 9 W/m2
16:15 47.8 °F 46.4 °F 29.7 in Calm   2 mph 95% 0.02 in 9 W/m2
16:20 47.8 °F 46.4 °F 29.7 in Calm     95% 0.02 in 7 W/m2
16:25 47.8 °F 46.4 °F 29.7 in NNW 0.9 mph 2 mph 95% 0.02 in 0 W/m2
16:30 47.8 °F 46.4 °F 29.7 in WNW 0.9 mph 1 mph 95% 0.02 in 0 W/m2
16:35 47.8 °F 46.4 °F 29.7 in West 4 mph 4 mph 95% 0.02 in 0 W/m2
16:40 47.8 °F 46.4 °F 29.7 in WNW 4 mph 4 mph 95% 0.02 in 0 W/m2
16:45 47.8 °F 46.4 °F 29.7 in West 0.9 mph 3 mph 95% 0.02 in 0 W/m2
16:50 47.8 °F 46.4 °F 29.7 in Calm     95% 0.02 in 0 W/m2
16:55 47.8 °F 46.4 °F 29.7 in Calm   1 mph 95% 0.02 in 0 W/m2
17:00 47.7 °F 46.2 °F 29.7 in Calm   2 mph 95% 0.02 in 0 W/m2
17:05 47.7 °F 46.2 °F 29.7 in Calm   2 mph 95% 0.02 in 0 W/m2
17:10 47.7 °F 46.2 °F 29.7 in West 0.9 mph 3 mph 95% 0.02 in 0 W/m2
17:15 47.7 °F 46.2 °F 29.7 in NW 0.9 mph 4 mph 95% 0.02 in 0 W/m2
17:20 47.7 °F 46.2 °F 29.7 in West 2.9 mph 4 mph 95% 0.03 in 0 W/m2
17:25 47.7 °F 46.2 °F 29.7 in West 2 mph 3 mph 95% 0.04 in 0 W/m2
17:30 47.5 °F 46 °F 29.7 in Calm   2 mph 95% 0.04 in 0 W/m2
17:35 47.5 °F 46 °F 29.7 in West 0.9 mph 3 mph 95% 0.05 in 0 W/m2
17:40 47.5 °F 46.4 °F 29.7 in Calm   3 mph 96% 0.06 in 0 W/m2
17:45 47.5 °F 46.4 °F 29.7 in West 2 mph 6 mph 96% 0.06 in 0 W/m2
17:50 47.5 °F 46.4 °F 29.7 in West 0.9 mph 2 mph 96% 0.06 in 0 W/m2
17:55 47.3 °F 46.2 °F 29.7 in Calm   6 mph 96% 0.06 in 0 W/m2
18:01 47.1 °F 46 °F 29.7 in Calm   1 mph 96% 0.06 in 0 W/m2
18:06 47.1 °F 46 °F 29.7 in Calm   1 mph 96% 0.06 in 0 W/m2
18:11 47.1 °F 46 °F 29.7 in Calm     96% 0.06 in 0 W/m2
18:16 47.1 °F 46 °F 29.7 in Calm     96% 0.05 in 0 W/m2
18:21 47.1 °F 46 °F 29.7 in West 0.9 mph 2 mph 96% 0.04 in 0 W/m2
18:26 47.1 °F 46 °F 29.7 in Calm     96% 0.02 in 0 W/m2
18:31 47.1 °F 46 °F 29.7 in WSW 2.9 mph 5 mph 96% 0.02 in 0 W/m2
18:36 47.1 °F 46 °F 29.7 in West 2 mph 2 mph 96% 0.02 in 0 W/m2
18:41 47.1 °F 46 °F 29.7 in West 2 mph 3 mph 96% 0.01 in 0 W/m2
18:46 47.1 °F 46 °F 29.7 in Calm   3 mph 96% 0.01 in 0 W/m2
18:51 47.1 °F 46 °F 29.7 in West 0.9 mph 1 mph 96% 0.01 in 0 W/m2
18:56 47.1 °F 46 °F 29.7 in WNW 2 mph 6 mph 96% 0.01 in 0 W/m2
19:01 47.1 °F 46 °F 29.7 in West 2.9 mph 3 mph 96% 0 in 0 W/m2
19:06 47.1 °F 46 °F 29.7 in WSW 0.9 mph 4 mph 96% 0 in 0 W/m2
19:11 47.1 °F 46 °F 29.7 in NW 2 mph 4 mph 96% 0 in 0 W/m2
19:16 47.1 °F 46 °F 29.7 in West 2 mph 7 mph 96% 0 in 0 W/m2
19:21 47.1 °F 46 °F 29.7 in West 2 mph 2 mph 96% 0 in 0 W/m2
19:26 46.9 °F 45.9 °F 29.7 in West 2 mph 6 mph 96% 0 in 0 W/m2
19:31 46.9 °F 45.9 °F 29.7 in West 0.9 mph 3 mph 96% 0 in 0 W/m2
19:36 47.1 °F 46 °F 29.7 in Calm   4 mph 96% 0 in 0 W/m2
19:41 46.9 °F 45.9 °F 29.7 in Calm     96% 0 in 0 W/m2
19:46 46.9 °F 45.9 °F 29.7 in Calm   2 mph 96% 0 in 0 W/m2
19:51 46.9 °F 45.9 °F 29.7 in Calm     96% 0 in 0 W/m2
19:56 46.9 °F 45.9 °F 29.7 in WNW 0.9 mph 1 mph 96% 0 in 0 W/m2
20:01 46.9 °F 45.9 °F 29.7 in Calm   2 mph 96% 0 in 0 W/m2
20:06 46.9 °F 45.9 °F 29.7 in Calm   1 mph 96% 0 in 0 W/m2
20:11 46.9 °F 45.9 °F 29.7 in WNW 0.9 mph 2 mph 96% 0 in 0 W/m2
20:16 46.9 °F 45.9 °F 29.7 in Calm   1 mph 96% 0 in 0 W/m2
20:21 46.9 °F 45.9 °F 29.7 in Calm     96% 0 in 0 W/m2
20:26 46.8 °F 45.7 °F 29.7 in Calm     96% 0 in 0 W/m2
20:31 46.8 °F 45.7 °F 29.7 in Calm     96% 0 in 0 W/m2
20:36 46.8 °F 45.7 °F 29.7 in Calm   1 mph 96% 0 in 0 W/m2
20:41 46.8 °F 45.7 °F 29.7 in Calm     96% 0 in 0 W/m2
20:46 46.8 °F 45.7 °F 29.7 in Calm   1 mph 96% 0 in 0 W/m2
20:51 46.8 °F 45.7 °F 29.7 in Calm   2 mph 96% 0 in 0 W/m2
20:56 46.8 °F 45.7 °F 29.7 in NW 2 mph 2 mph 96% 0 in 0 W/m2
21:01 46.8 °F 45.7 °F 29.7 in Calm   1 mph 96% 0 in 0 W/m2
21:06 46.8 °F 45.7 °F 29.7 in Calm   1 mph 96% 0 in 0 W/m2
21:11 46.8 °F 45.7 °F 29.7 in NW 0.9 mph 2 mph 96% 0 in 0 W/m2
21:16 46.8 °F 45.7 °F 29.7 in NW 0.9 mph 1 mph 96% 0 in 0 W/m2
21:21 46.8 °F 45.7 °F 29.7 in NW 2 mph 3 mph 96% 0 in 0 W/m2
21:26 46.8 °F 45.7 °F 29.7 in Calm     96% 0 in 0 W/m2
21:31 46.8 °F 45.7 °F 29.7 in Calm   3 mph 96% 0 in 0 W/m2
21:36 46.6 °F 45.9 °F 29.7 in Calm   1 mph 97% 0 in 0 W/m2
21:41 46.6 °F 45.9 °F 29.7 in Calm   3 mph 97% 0 in 0 W/m2
21:46 46.6 °F 45.9 °F 29.7 in Calm     97% 0 in 0 W/m2
21:51 46.6 °F 45.9 °F 29.7 in Calm   3 mph 97% 0 in 0 W/m2
21:56 46.6 °F 45.9 °F 29.7 in Calm     97% 0 in 0 W/m2
22:01 46.6 °F 45.9 °F 29.7 in Calm     97% 0 in 0 W/m2
22:06 46.6 °F 45.9 °F 29.7 in Calm     97% 0 in 0 W/m2
22:11 46.6 °F 45.9 °F 29.7 in Calm     97% 0 in 0 W/m2
22:17 46.6 °F 45.9 °F 29.7 in Calm     97% 0 in 0 W/m2
22:22 46.4 °F 45.7 °F 29.7 in Calm     97% 0 in 0 W/m2
22:27 46.2 °F 45.5 °F 29.7 in Calm     97% 0 in 0 W/m2
22:32 46.2 °F 45.5 °F 29.7 in Calm     97% 0 in 0 W/m2
22:37 46.2 °F 45.5 °F 29.7 in Calm     97% 0 in 0 W/m2
22:42 46.2 °F 45.5 °F 29.7 in Calm     97% 0 in 0 W/m2
22:47 46 °F 45.3 °F 29.7 in Calm     97% 0 in 0 W/m2
22:52 46 °F 45.3 °F 29.7 in Calm     97% 0 in 0 W/m2
22:57 46 °F 45.3 °F 29.7 in Calm     97% 0 in 0 W/m2
23:02 46 °F 45.3 °F 29.7 in Calm     97% 0 in 0 W/m2
23:07 45.9 °F 45.1 °F 29.7 in Calm     97% 0 in 0 W/m2
23:12 45.9 °F 45.1 °F 29.7 in Calm     97% 0 in 0 W/m2
23:17 45.9 °F 45.1 °F 29.7 in Calm     97% 0 in 0 W/m2
23:22 45.9 °F 45.1 °F 29.6 in Calm     97% 0 in 0 W/m2
23:27 45.7 °F 45 °F 29.6 in Calm     97% 0 in 0 W/m2
23:32 45.7 °F 45 °F 29.6 in Calm     97% 0 in 0 W/m2
23:37 45.7 °F 45 °F 29.6 in Calm     97% 0 in 0 W/m2
23:42 45.9 °F 45.1 °F 29.6 in NW 2 mph 2 mph 97% 0 in 0 W/m2
23:47 45.9 °F 45.1 °F 29.6 in Calm   2 mph 97% 0 in 0 W/m2
23:52 45.9 °F 45.1 °F 29.6 in Calm     97% 0 in 0 W/m2
23:57 45.9 °F 45.1 °F 29.6 in Calm   2 mph 97% 0 in 0 W/m2
Juneau County Weather
Compliments of Weather Underground - 2 mb